createdAt,value
2018-06-02T14:51:45.280Z,13.80
2018-06-02T14:51:49.040Z,15.20
2018-06-02T14:51:52.820Z,16.35
2018-06-02T14:51:56.524Z,16.80
2018-06-02T14:52:00.208Z,17.00
2018-06-02T14:52:04.180Z,17.20
2018-06-02T14:52:08.580Z,17.10
2018-06-02T14:52:12.961Z,17.00
2018-06-02T14:52:16.880Z,17.23
2018-06-02T14:52:21.280Z,17.25
2018-06-02T14:52:25.900Z,17.15
2018-06-02T14:52:29.588Z,16.97
2018-06-02T14:52:33.480Z,16.90
2018-06-02T14:52:37.360Z,16.75
2018-06-02T14:52:41.176Z,16.90
2018-06-02T14:52:44.940Z,17.00
2018-06-02T14:52:48.822Z,17.00
2018-06-02T14:52:53.230Z,16.90
2018-06-02T14:52:57.840Z,16.80
2018-06-02T14:53:01.746Z,16.97
2018-06-02T14:53:05.420Z,17.10
2018-06-02T14:53:09.080Z,17.20
2018-06-02T14:53:12.761Z,17.25
2018-06-02T14:53:16.469Z,17.45
2018-06-02T14:53:20.899Z,17.80
2018-06-02T14:53:25.300Z,17.97
2018-06-02T14:53:29.193Z,18.30
2018-06-02T14:53:32.980Z,18.40
2018-06-02T14:53:36.660Z,18.45
2018-06-02T14:53:40.299Z,18.50
2018-06-02T14:53:43.988Z,18.35
2018-06-02T14:53:47.941Z,18.25
2018-06-02T14:53:51.699Z,18.10
2018-06-02T14:53:55.600Z,18.10
2018-06-02T14:53:59.280Z,18.15
2018-06-02T14:54:04.000Z,18.20
2018-06-02T14:54:07.880Z,18.20
2018-06-02T14:54:12.321Z,18.40
2018-06-02T14:54:15.985Z,18.50
2018-06-02T14:54:19.703Z,18.25
2018-06-02T14:54:23.399Z,18.30
2018-06-02T14:54:27.122Z,18.15
2018-06-02T14:54:31.840Z,18.20
2018-06-02T14:54:36.340Z,18.33
2018-06-02T14:54:40.240Z,18.20
2018-06-02T14:54:44.680Z,18.15
2018-06-02T14:54:48.340Z,18.35
2018-06-02T14:54:51.988Z,18.65
2018-06-02T14:54:55.652Z,18.85
2018-06-02T14:54:59.299Z,19.00
2018-06-02T14:55:02.973Z,19.00
2018-06-02T14:55:07.482Z,19.00
2018-06-02T14:55:11.215Z,19.40
2018-06-02T14:55:14.953Z,19.50
2018-06-02T14:55:18.622Z,19.70
2018-06-02T14:55:23.260Z,19.60
2018-06-02T14:55:27.340Z,19.50
2018-06-02T14:55:31.820Z,19.35
2018-06-02T14:55:35.539Z,19.10
2018-06-02T14:55:39.180Z,18.90
2018-06-02T14:55:42.860Z,18.75
2018-06-02T14:55:46.580Z,18.70
2018-06-02T14:55:51.220Z,18.90
2018-06-02T14:55:54.901Z,18.73
2018-06-02T14:55:58.579Z,19.00
2018-06-02T14:56:03.140Z,19.30
2018-06-02T14:56:07.080Z,19.33
2018-06-02T14:56:10.820Z,19.10
2018-06-02T14:56:14.480Z,19.20
2018-06-02T14:56:18.342Z,19.15
2018-06-02T14:56:22.490Z,19.20
2018-06-02T14:56:26.140Z,19.05
2018-06-02T14:56:29.824Z,19.10
2018-06-02T14:56:33.681Z,19.00
2018-06-02T14:56:37.342Z,19.00
2018-06-02T14:56:41.091Z,19.05
2018-06-02T14:56:44.919Z,18.75
2018-06-02T14:56:48.580Z,18.60
2018-06-02T14:56:52.343Z,18.50
2018-06-02T14:56:56.060Z,18.80
2018-06-02T14:56:59.740Z,18.75
2018-06-02T14:57:03.420Z,18.50
2018-06-02T14:57:07.080Z,18.60
2018-06-02T14:57:10.739Z,18.65
2018-06-02T14:57:14.403Z,18.90
2018-06-02T14:57:18.060Z,18.95
2018-06-02T14:57:21.720Z,18.95
2018-06-02T14:57:26.540Z,18.80
2018-06-02T14:57:30.356Z,18.33
2018-06-02T14:57:34.220Z,18.70
2018-06-02T14:57:38.022Z,18.90
2018-06-02T14:57:41.820Z,18.95
2018-06-02T14:57:45.829Z,19.00
2018-06-02T14:57:49.679Z,19.20
2018-06-02T14:57:53.780Z,19.25
2018-06-02T14:57:57.880Z,19.35
2018-06-02T14:58:01.540Z,19.30
2018-06-02T14:58:06.488Z,18.90
2018-06-02T14:58:10.140Z,18.97
2018-06-02T14:58:13.849Z,19.20
2018-06-02T14:58:18.570Z,19.30
2018-06-02T14:58:22.220Z,19.27
2018-06-02T14:58:25.928Z,19.35
2018-06-02T14:58:30.543Z,19.60
2018-06-02T14:58:35.104Z,19.83
2018-06-02T14:58:38.763Z,19.43
2018-06-02T14:58:42.444Z,19.20
2018-06-02T14:58:46.050Z,18.90
2018-06-02T14:58:49.902Z,18.90
2018-06-02T14:58:53.543Z,18.90
2018-06-02T14:58:57.163Z,18.80
2018-06-02T14:59:01.985Z,18.70
2018-06-02T14:59:05.603Z,18.80
2018-06-02T14:59:09.231Z,18.85
2018-06-02T14:59:13.868Z,18.95
2018-06-02T14:59:17.623Z,18.90
2018-06-02T14:59:22.263Z,19.00
2018-06-02T14:59:25.950Z,19.20
2018-06-02T14:59:29.623Z,19.30
2018-06-02T14:59:33.303Z,19.15
2018-06-02T14:59:38.023Z,19.20
2018-06-02T14:59:41.687Z,19.35
2018-06-02T14:59:46.123Z,19.40
2018-06-02T14:59:49.904Z,19.40
2018-06-02T14:59:53.811Z,19.40
2018-06-02T14:59:57.683Z,19.80
2018-06-02T15:00:01.403Z,19.85
2018-06-02T15:00:05.269Z,19.95
2018-06-02T15:00:09.163Z,19.90
2018-06-02T15:00:12.842Z,19.70
2018-06-02T15:00:16.565Z,19.50
2018-06-02T15:00:20.243Z,19.55
2018-06-02T15:00:23.891Z,19.35
2018-06-02T15:01:00.294Z,19.70
2018-06-02T15:01:04.098Z,20.23
2018-06-02T15:01:07.778Z,20.40
2018-06-02T15:01:11.459Z,20.05
2018-06-02T15:01:15.098Z,19.55
2018-06-02T15:01:18.758Z,19.20
2018-06-02T15:01:22.398Z,19.15
2018-06-02T15:01:26.059Z,19.10
2018-06-02T15:01:29.679Z,19.10
2018-06-02T15:01:33.439Z,18.90
2018-06-02T15:01:37.138Z,18.65
2018-06-02T15:01:40.801Z,19.00
2018-06-02T15:01:44.518Z,19.30
2018-06-02T15:01:48.167Z,19.40
2018-06-02T15:01:52.779Z,19.30
2018-06-02T15:01:57.178Z,18.93
2018-06-02T15:02:00.878Z,18.90
2018-06-02T15:02:04.538Z,19.05
2018-06-02T15:02:21.587Z,18.64
2018-06-02T15:02:25.656Z,18.77
2018-06-02T15:02:30.345Z,18.90
2018-06-02T15:02:34.447Z,18.67
2018-06-02T15:02:38.956Z,18.70
2018-06-02T15:02:43.844Z,18.75
2018-06-02T15:02:50.095Z,18.93
2018-06-02T15:02:55.375Z,18.77
2018-06-02T15:02:59.716Z,18.77
2018-06-02T15:03:05.247Z,18.85
2018-06-02T15:03:09.727Z,18.90
2018-06-02T15:03:14.205Z,18.77
2018-06-02T15:03:18.465Z,19.15
2018-06-02T15:03:24.105Z,19.50
2018-06-02T15:03:30.135Z,19.80
2018-06-02T15:03:35.647Z,20.10
2018-06-02T15:03:39.715Z,20.45
2018-06-02T15:03:44.166Z,20.70
2018-06-02T15:03:49.574Z,20.50
2018-06-02T15:03:53.863Z,20.08
2018-06-02T15:03:58.273Z,19.75
2018-06-02T15:04:02.365Z,19.50
2018-06-02T15:04:06.435Z,19.50
2018-06-02T15:04:10.707Z,19.40
2018-06-02T15:04:15.035Z,19.30
2018-06-02T15:04:19.195Z,19.40
2018-06-02T15:04:25.350Z,19.50
2018-06-02T15:04:29.615Z,19.77
2018-06-02T15:04:33.697Z,19.50
2018-06-02T15:04:37.655Z,19.15
2018-06-02T15:04:42.125Z,19.20
2018-06-02T15:04:48.295Z,19.35
2018-06-02T15:04:52.195Z,19.40
2018-06-02T15:04:56.454Z,19.35
2018-06-02T15:05:02.305Z,19.20
2018-06-02T15:05:06.634Z,19.40
2018-06-02T15:05:10.624Z,19.43
2018-06-02T15:05:14.710Z,19.10
2018-06-02T15:05:19.416Z,18.85
2018-06-02T15:05:23.957Z,18.95
2018-06-02T15:05:28.655Z,18.97
2018-06-02T15:05:33.455Z,19.07
2018-06-02T15:05:37.677Z,19.25
2018-06-02T15:05:42.455Z,19.47
2018-06-02T15:05:46.657Z,19.80
2018-06-02T15:05:50.755Z,19.53
2018-06-02T15:05:54.945Z,19.45
2018-06-02T15:05:59.174Z,19.40
2018-06-02T15:06:03.473Z,19.10
2018-06-02T15:06:08.135Z,18.80
2018-06-02T15:06:13.714Z,18.70
2018-06-02T15:06:17.925Z,18.37
2018-06-02T15:06:21.936Z,18.25
2018-06-02T15:06:26.425Z,18.15
2018-06-02T15:06:30.715Z,17.95
2018-06-02T15:06:35.265Z,18.07
2018-06-02T15:06:39.378Z,17.90
2018-06-02T15:06:43.965Z,17.90
2018-06-02T15:06:47.987Z,18.20
2018-06-02T15:06:52.156Z,18.10
2018-06-02T15:06:56.755Z,18.10
2018-06-02T15:07:01.835Z,18.10
2018-06-02T15:07:05.947Z,18.00
2018-06-02T15:07:10.670Z,17.90
2018-06-02T15:07:15.335Z,17.73
2018-06-02T15:07:19.885Z,18.00
2018-06-02T15:07:23.996Z,17.77
2018-06-02T15:07:28.715Z,17.60
2018-06-02T15:07:33.001Z,17.70
2018-06-02T15:07:37.355Z,17.65
2018-06-02T15:07:41.475Z,17.80
2018-06-02T15:07:45.845Z,17.70
2018-06-02T15:07:50.234Z,17.40
2018-06-02T15:07:55.444Z,17.35
2018-06-02T15:08:00.958Z,17.27
2018-06-02T15:08:05.175Z,17.48
2018-06-02T15:08:10.575Z,17.25
2018-06-02T15:08:15.786Z,17.27
2018-06-02T15:08:20.205Z,17.47
2018-06-02T15:08:24.386Z,17.45
2018-06-02T15:08:29.695Z,17.60
2018-06-02T15:08:33.905Z,17.57
2018-06-02T15:08:38.757Z,17.63
2018-06-02T15:08:43.035Z,17.37
2018-06-02T15:08:47.338Z,17.00
2018-06-02T15:08:51.583Z,17.00
2018-06-02T15:08:55.909Z,17.05
2018-06-02T15:09:00.148Z,16.67
2018-06-02T15:09:04.525Z,16.35
2018-06-02T15:09:08.995Z,16.15
2018-06-02T15:09:13.385Z,16.30
2018-06-02T15:09:17.855Z,16.40
2018-06-02T15:09:22.135Z,16.23
2018-06-02T15:09:26.485Z,16.20
2018-06-02T15:09:31.997Z,16.50
2018-06-02T15:09:37.416Z,16.60
2018-06-02T15:09:41.745Z,16.23
2018-06-02T15:09:47.695Z,16.10
2018-06-02T15:09:52.904Z,15.95
2018-06-02T15:09:59.464Z,15.52
2018-06-02T15:10:06.045Z,15.38
2018-06-02T15:10:10.604Z,15.28
2018-06-02T15:10:15.097Z,15.15
2018-06-02T15:10:19.075Z,15.23
2018-06-02T15:10:23.238Z,15.70
2018-06-02T15:10:27.478Z,15.60
2018-06-02T15:10:31.625Z,15.60
2018-06-02T15:10:35.845Z,15.95
2018-06-02T15:10:40.305Z,16.20
2018-06-02T15:10:45.085Z,16.60
2018-06-02T15:10:49.565Z,16.83
2018-06-02T15:10:54.256Z,17.00
2018-06-02T15:10:59.765Z,17.30
2018-06-02T15:11:05.236Z,17.60
2018-06-02T15:11:09.565Z,17.45
2018-06-02T15:11:13.807Z,17.75
2018-06-02T15:11:19.517Z,17.80
2018-06-02T15:11:24.145Z,17.85
2018-06-02T15:11:29.935Z,17.93
2018-06-02T15:11:34.374Z,17.80
2018-06-02T15:11:39.895Z,17.60
2018-06-02T15:11:44.515Z,17.43
2018-06-02T15:11:48.954Z,17.57
2018-06-02T15:11:53.306Z,17.47
2018-06-02T15:11:57.774Z,17.30
2018-06-02T15:12:02.154Z,17.20
2018-06-02T15:12:06.565Z,17.43
2018-06-02T15:12:10.925Z,17.50
2018-06-02T15:12:15.294Z,17.35
2018-06-02T15:12:20.175Z,17.23
2018-06-02T15:12:24.135Z,17.40
2018-06-02T15:12:28.365Z,17.60
2018-06-02T15:12:33.796Z,17.60
2018-06-02T15:12:38.175Z,17.57
2018-06-02T15:12:42.185Z,17.73
2018-06-02T15:12:48.005Z,17.80
2018-06-02T15:12:52.095Z,17.75
2018-06-02T15:12:57.545Z,17.70
2018-06-02T15:13:01.655Z,17.53
2018-06-02T15:13:06.885Z,17.50
2018-06-02T15:13:10.927Z,17.53
2018-06-02T15:13:15.354Z,17.35
2018-06-02T15:13:20.090Z,17.17
2018-06-02T15:13:24.565Z,17.27
2018-06-02T15:13:30.396Z,17.35
2018-06-02T15:13:36.355Z,17.33
2018-06-02T15:13:41.944Z,16.95
2018-06-02T15:13:46.267Z,16.93
2018-06-02T15:13:51.019Z,17.10
2018-06-02T15:13:55.256Z,16.80
2018-06-02T15:13:59.677Z,16.63
2018-06-02T15:14:04.118Z,16.70
2018-06-02T15:14:08.525Z,16.73
2018-06-02T15:14:12.725Z,16.35
2018-06-02T15:14:16.687Z,16.00
2018-06-02T15:14:22.426Z,16.00
2018-06-02T15:14:27.422Z,15.88
2018-06-02T15:14:31.284Z,15.77
2018-06-02T15:14:35.315Z,15.50
2018-06-02T15:14:40.236Z,15.65
2018-06-02T15:14:45.855Z,16.03
2018-06-02T15:14:50.174Z,16.20
2018-06-02T15:14:55.476Z,16.03
2018-06-02T15:14:59.735Z,16.20
2018-06-02T15:15:04.265Z,16.40
2018-06-02T15:15:08.195Z,16.50
2018-06-02T15:15:13.475Z,16.45
2018-06-02T15:15:17.856Z,16.67
2018-06-02T15:15:22.055Z,16.60
2018-06-02T15:15:26.444Z,16.80
2018-06-02T15:15:30.665Z,16.60
2018-06-02T15:15:34.795Z,16.60
2018-06-02T15:15:38.978Z,16.55
2018-06-02T15:15:42.979Z,16.30
2018-06-02T15:15:46.855Z,16.15
2018-06-02T15:15:50.929Z,16.30
2018-06-02T15:15:55.838Z,16.05
2018-06-02T15:16:00.205Z,16.17
2018-06-02T15:16:05.746Z,16.30
2018-06-02T15:16:11.195Z,16.40
2018-06-02T15:16:15.630Z,16.77
2018-06-02T15:16:20.057Z,16.90
2018-06-02T15:16:24.845Z,17.30
2018-06-02T15:16:29.065Z,17.70
2018-06-02T15:16:33.507Z,18.10
2018-06-02T15:16:37.915Z,18.70
2018-06-02T15:16:42.296Z,19.05
2018-06-02T15:16:48.375Z,19.40
2018-06-02T15:16:52.724Z,19.52
2018-06-02T15:16:57.055Z,19.70
2018-06-02T15:17:03.396Z,19.45
2018-06-02T15:17:08.875Z,18.78
2018-06-02T15:17:13.415Z,18.37
2018-06-02T15:17:17.734Z,17.77
2018-06-02T15:17:23.194Z,17.60
2018-06-02T15:17:27.465Z,17.57
2018-06-02T15:17:33.255Z,17.73
2018-06-02T15:17:37.345Z,17.87
2018-06-02T15:17:42.065Z,17.63
2018-06-02T15:17:46.134Z,17.85
2018-06-02T15:17:50.407Z,17.95
2018-06-02T15:17:54.795Z,17.77
2018-06-02T15:18:00.505Z,17.60
2018-06-02T15:18:04.605Z,17.73
2018-06-02T15:18:08.825Z,17.90
2018-06-02T15:18:14.625Z,17.90
2018-06-02T15:18:19.055Z,17.65
2018-06-02T15:18:23.495Z,17.45
2018-06-02T15:18:27.906Z,17.13
2018-06-02T15:18:32.095Z,16.95
2018-06-02T15:18:36.395Z,16.80
2018-06-02T15:18:40.535Z,16.97
2018-06-02T15:18:44.805Z,17.20
2018-06-02T15:18:49.146Z,17.40
2018-06-02T15:18:53.455Z,17.60
2018-06-02T15:18:58.079Z,17.93
2018-06-02T15:19:03.426Z,18.05
2018-06-02T15:19:07.526Z,18.12
2018-06-02T15:19:11.608Z,17.95
2018-06-02T15:19:16.646Z,17.80
2018-06-02T15:19:20.735Z,17.90
2018-06-02T15:19:24.795Z,17.75
2018-06-02T15:19:28.805Z,17.70
2018-06-02T15:19:33.755Z,17.60
2018-06-02T15:19:38.675Z,17.47
2018-06-02T15:19:43.025Z,17.17
2018-06-02T15:19:48.945Z,17.25
2018-06-02T15:19:53.357Z,16.80
2018-06-02T15:19:57.977Z,16.95
2018-06-02T15:20:02.605Z,16.90
2018-06-02T15:20:08.465Z,16.70
2018-06-02T15:20:13.065Z,16.87
2018-06-02T15:20:17.585Z,16.80
2018-06-02T15:20:21.935Z,16.87
2018-06-02T15:20:27.605Z,17.00
2018-06-02T15:20:31.835Z,16.87
2018-06-02T15:20:36.046Z,17.15
2018-06-02T15:20:40.557Z,17.40
2018-06-02T15:20:44.986Z,17.40
2018-06-02T15:20:50.065Z,17.50
2018-06-02T15:20:53.957Z,17.43
2018-06-02T15:20:58.097Z,17.15
2018-06-02T15:21:03.514Z,17.15
2018-06-02T15:21:09.315Z,17.23
2018-06-02T15:21:14.908Z,17.02
2018-06-02T15:21:19.435Z,16.98
2018-06-02T15:21:23.757Z,17.20
2018-06-02T15:21:28.355Z,17.10
2018-06-02T15:21:32.864Z,17.20
2018-06-02T15:21:37.454Z,16.87
2018-06-02T15:21:41.824Z,16.75
2018-06-02T15:21:47.835Z,16.67
2018-06-02T15:21:52.248Z,16.55
2018-06-02T15:21:56.735Z,16.60
2018-06-02T15:22:01.257Z,16.60
2018-06-02T15:22:07.593Z,16.45
2018-06-02T15:22:12.122Z,16.25
2018-06-02T15:22:17.982Z,16.03
2018-06-02T15:22:23.282Z,15.95
2018-06-02T15:22:29.735Z,16.07
2018-06-02T15:22:34.525Z,16.08
2018-06-02T15:22:38.812Z,16.25
2018-06-02T15:22:43.102Z,16.33
2018-06-02T15:22:47.544Z,16.40
2018-06-02T15:22:53.322Z,16.30
2018-06-02T15:22:59.201Z,16.40
2018-06-02T15:23:03.573Z,16.45
2018-06-02T15:23:07.952Z,16.55
2018-06-02T15:23:13.905Z,17.10
2018-06-02T15:23:18.189Z,17.50
2018-06-02T15:23:24.272Z,17.55
2018-06-02T15:23:28.873Z,17.60
2018-06-02T15:23:33.313Z,18.03
2018-06-02T15:23:37.702Z,18.45
2018-06-02T15:23:42.494Z,18.75
2018-06-02T15:23:47.093Z,18.87
2018-06-02T15:23:51.685Z,19.23
2018-06-02T15:23:56.073Z,19.00
2018-06-02T15:24:01.875Z,19.30
2018-06-02T15:24:05.994Z,19.00
2018-06-02T15:24:11.234Z,18.45
2018-06-02T15:24:16.792Z,18.43
2018-06-02T15:24:21.182Z,18.40
2018-06-02T15:24:25.741Z,18.65
2018-06-02T15:24:30.894Z,18.70
2018-06-02T15:24:36.241Z,18.48
2018-06-02T15:24:40.422Z,18.97
2018-06-02T15:24:44.741Z,18.95
2018-06-02T15:24:49.367Z,18.55
2018-06-02T15:24:54.081Z,18.47
2018-06-02T15:24:58.681Z,18.33
2018-06-02T15:25:03.460Z,18.45
2018-06-02T15:25:08.028Z,18.27
2018-06-02T15:25:12.412Z,18.07
2018-06-02T15:25:16.801Z,18.05
2018-06-02T15:25:22.082Z,18.05
2018-06-02T15:25:28.112Z,18.23
2018-06-02T15:25:33.666Z,18.42
2018-06-02T15:25:39.423Z,18.57
2018-06-02T15:25:44.142Z,18.62
2018-06-02T15:25:48.484Z,18.70
2018-06-02T15:25:52.825Z,18.60
2018-06-02T15:25:57.111Z,18.55
2018-06-02T15:26:02.461Z,18.50
2018-06-02T15:26:07.282Z,18.30
2018-06-02T15:26:11.675Z,18.37
2018-06-02T15:26:15.912Z,18.50
2018-06-02T15:26:20.352Z,18.37
2018-06-02T15:26:25.792Z,18.30
2018-06-02T15:26:30.141Z,18.17
2018-06-02T15:26:34.922Z,18.23
2018-06-02T15:26:39.282Z,18.23
2018-06-02T15:26:43.661Z,18.20
2018-06-02T15:26:47.951Z,18.65
2018-06-02T15:26:52.285Z,19.00
2018-06-02T15:26:56.792Z,18.85
2018-06-02T15:27:02.622Z,19.05
2018-06-02T15:27:06.982Z,19.08
2018-06-02T15:27:11.381Z,19.00
2018-06-02T15:27:15.705Z,19.05
2018-06-02T15:27:20.142Z,18.90
2018-06-02T15:27:24.461Z,18.90
2018-06-02T15:27:29.932Z,19.10
2018-06-02T15:27:34.302Z,18.87
2018-06-02T15:27:39.162Z,18.83
2018-06-02T15:27:43.532Z,18.80
2018-06-02T15:27:47.861Z,18.60
2018-06-02T15:27:52.202Z,18.35
2018-06-02T15:27:59.122Z,18.37
2018-06-02T15:28:03.411Z,18.46
2018-06-02T15:28:07.723Z,18.55
2018-06-02T15:28:12.134Z,18.50
2018-06-02T15:28:16.702Z,18.40
2018-06-02T15:28:21.042Z,18.55
2018-06-02T15:28:25.511Z,18.80
2018-06-02T15:28:29.942Z,18.67
2018-06-02T15:28:34.661Z,18.80
2018-06-02T15:28:39.012Z,18.80
2018-06-02T15:28:43.444Z,18.65
2018-06-02T15:28:47.911Z,18.50
2018-06-02T15:28:53.691Z,18.35
2018-06-02T15:28:58.111Z,18.17
2018-06-02T15:29:02.443Z,18.13
2018-06-02T15:29:06.812Z,18.30
2018-06-02T15:29:11.802Z,18.45
2018-06-02T15:29:16.711Z,18.65
2018-06-02T15:29:21.474Z,19.00
2018-06-02T15:29:25.901Z,19.40
2018-06-02T15:29:30.286Z,19.65
2018-06-02T15:29:34.712Z,19.60
2018-06-02T15:29:40.262Z,19.40
2018-06-02T15:29:44.732Z,19.27
2018-06-02T15:29:49.342Z,19.00
2018-06-02T15:29:55.531Z,18.77
2018-06-02T15:29:59.941Z,18.50
2018-06-02T15:30:04.381Z,18.40
2018-06-02T15:30:08.852Z,18.60
2018-06-02T15:30:13.361Z,18.65
2018-06-02T15:30:17.931Z,18.90
2018-06-02T15:30:22.373Z,18.95
2018-06-02T15:30:26.791Z,18.87
2018-06-02T15:30:31.203Z,18.75
2018-06-02T15:30:35.852Z,18.70
2018-06-02T15:30:40.235Z,18.50
2018-06-02T15:30:45.962Z,18.43
2018-06-02T15:30:50.352Z,18.33
2018-06-02T15:30:54.604Z,18.40
2018-06-02T15:30:59.092Z,18.35
2018-06-02T15:31:03.773Z,18.25
2018-06-02T15:31:08.203Z,18.27
2018-06-02T15:31:13.868Z,18.45
2018-06-02T15:31:18.346Z,18.45
2018-06-02T15:31:22.857Z,18.43
2018-06-02T15:31:27.654Z,18.70
2018-06-02T15:31:33.531Z,18.80
2018-06-02T15:31:38.906Z,19.33
2018-06-02T15:31:43.611Z,19.57
2018-06-02T15:31:48.551Z,19.80
2018-06-02T15:31:53.191Z,20.00
2018-06-02T15:31:57.605Z,20.45
2018-06-02T15:32:01.923Z,20.83
2018-06-02T15:32:06.381Z,20.70
2018-06-02T15:32:10.682Z,20.50
2018-06-02T15:32:15.165Z,20.55
2018-06-02T15:32:20.905Z,20.55
2018-06-02T15:32:25.621Z,20.27
2018-06-02T15:32:31.272Z,19.90
2018-06-02T15:32:35.723Z,19.83
2018-06-02T15:32:39.932Z,20.07
2018-06-02T15:32:45.598Z,20.00
2018-06-02T15:32:50.143Z,20.15
2018-06-02T15:32:54.593Z,20.30
2018-06-02T15:32:58.613Z,20.87
2018-06-02T15:33:02.853Z,21.00
2018-06-02T15:33:07.072Z,21.20
2018-06-02T15:33:11.361Z,21.20
2018-06-02T15:33:17.881Z,21.20
2018-06-02T15:33:22.534Z,21.70
2018-06-02T15:33:27.630Z,21.53
2018-06-02T15:33:31.933Z,21.47
2018-06-02T15:33:36.331Z,21.75
2018-06-02T15:33:40.571Z,21.80
2018-06-02T15:33:46.083Z,21.77
2018-06-02T15:33:50.742Z,21.43
2018-06-02T15:33:54.774Z,21.33
2018-06-02T15:33:59.441Z,21.05
2018-06-02T15:34:03.912Z,20.90
2018-06-02T15:34:09.661Z,20.70
2018-06-02T15:34:15.282Z,21.08
2018-06-02T15:34:21.205Z,21.13
2018-06-02T15:34:27.143Z,21.25
2018-06-02T15:34:31.601Z,21.48
2018-06-02T15:34:35.958Z,21.43
2018-06-02T15:34:40.399Z,21.40
2018-06-02T15:34:44.753Z,21.40
2018-06-02T15:34:50.103Z,21.70
2018-06-02T15:34:55.673Z,21.70
2018-06-02T15:35:00.973Z,21.67
2018-06-02T15:35:05.402Z,21.83
2018-06-02T15:35:10.242Z,21.85
2018-06-02T15:35:15.113Z,21.73
2018-06-02T15:35:19.172Z,21.47
2018-06-02T15:35:24.211Z,21.30
2018-06-02T15:35:30.052Z,21.23
2018-06-02T15:35:34.513Z,20.65
2018-06-02T15:35:38.802Z,20.40
2018-06-02T15:35:43.143Z,20.15
2018-06-02T15:35:48.862Z,19.90
2018-06-02T15:35:54.443Z,19.90
2018-06-02T15:35:58.283Z,20.10
2018-06-02T15:36:02.024Z,20.60
2018-06-02T15:36:05.845Z,20.70
2018-06-02T15:36:10.223Z,20.70
2018-06-02T15:36:14.613Z,20.95
2018-06-02T15:36:19.351Z,21.03
2018-06-02T15:36:23.434Z,20.90
2018-06-02T15:36:27.184Z,20.80
2018-06-02T15:36:31.893Z,20.70
2018-06-02T15:36:36.206Z,20.47
2018-06-02T15:36:39.984Z,20.40
2018-06-02T15:36:44.604Z,20.15
2018-06-02T15:36:48.614Z,20.00
2018-06-02T15:36:52.563Z,19.90
2018-06-02T15:36:57.874Z,19.70
2018-06-02T15:37:01.973Z,19.37
2018-06-02T15:37:07.423Z,19.35
2018-06-02T15:37:11.531Z,19.53
2018-06-02T15:37:15.421Z,19.40
2018-06-02T15:37:19.311Z,19.40
2018-06-02T15:37:23.364Z,19.60
2018-06-02T15:37:28.113Z,19.65
2018-06-02T15:37:32.303Z,19.87
2018-06-02T15:37:37.780Z,19.90
2018-06-02T15:37:41.754Z,19.70
2018-06-02T15:37:46.053Z,19.80
2018-06-02T15:37:50.211Z,19.85
2018-06-02T15:37:54.221Z,19.90
2018-06-02T15:37:59.831Z,19.85
2018-06-02T15:38:05.041Z,19.73
2018-06-02T15:38:08.921Z,19.77
2018-06-02T15:38:13.266Z,19.50
2018-06-02T15:38:18.251Z,19.55
2018-06-02T15:38:23.093Z,19.50
2018-06-02T15:38:29.481Z,19.43
2018-06-02T15:38:33.962Z,19.52
2018-06-02T15:38:37.972Z,19.13
2018-06-02T15:38:42.003Z,19.10
2018-06-02T15:38:46.773Z,19.30
2018-06-02T15:38:50.650Z,19.33
2018-06-02T15:38:54.908Z,19.50
2018-06-02T15:38:59.991Z,19.67
2018-06-02T15:39:04.701Z,19.87
2018-06-02T15:39:08.923Z,20.17
2018-06-02T15:39:12.901Z,20.25
2018-06-02T15:39:16.981Z,20.45
2018-06-02T15:39:21.211Z,20.50
2018-06-02T15:39:25.541Z,20.35
2018-06-02T15:39:29.560Z,20.10
2018-06-02T15:39:34.551Z,20.00
2018-06-02T15:39:38.691Z,20.17
2018-06-02T15:39:42.671Z,20.35
2018-06-02T15:39:46.782Z,20.10
2018-06-02T15:39:50.891Z,20.20
2018-06-02T15:39:54.902Z,20.30
2018-06-02T15:39:59.093Z,20.55
2018-06-02T15:40:03.381Z,20.65
2018-06-02T15:40:08.882Z,20.55
2018-06-02T15:40:12.931Z,20.33
2018-06-02T15:40:17.052Z,20.20
2018-06-02T15:40:21.902Z,20.40
2018-06-02T15:40:26.091Z,20.43
2018-06-02T15:40:30.022Z,20.25
2018-06-02T15:40:33.963Z,20.20
2018-06-02T15:40:39.711Z,20.25
2018-06-02T15:40:44.783Z,20.30
2018-06-02T15:40:48.561Z,20.20
2018-06-02T15:40:52.476Z,19.95
2018-06-02T15:40:57.253Z,19.60
2018-06-02T15:41:01.471Z,19.93
2018-06-02T15:41:05.611Z,20.20
2018-06-02T15:41:09.541Z,20.25
2018-06-02T15:41:13.746Z,20.30
2018-06-02T15:41:17.652Z,20.45
2018-06-02T15:41:22.643Z,20.65
2018-06-02T15:41:26.953Z,20.87
2018-06-02T15:41:31.336Z,20.43
2018-06-02T15:41:35.311Z,20.20
2018-06-02T15:41:39.296Z,20.35
2018-06-02T15:41:44.763Z,20.55
2018-06-02T15:41:48.734Z,20.70
2018-06-02T15:41:53.181Z,20.85
2018-06-02T15:41:57.602Z,21.00
2018-06-02T15:42:01.833Z,21.35
2018-06-02T15:42:06.415Z,21.75
2018-06-02T15:42:11.973Z,21.70
2018-06-02T15:42:16.445Z,21.30
2018-06-02T15:42:20.885Z,21.05
2018-06-02T15:42:26.191Z,20.60
2018-06-02T15:42:32.144Z,20.60
2018-06-02T15:42:37.501Z,20.12
2018-06-02T15:42:43.044Z,20.00
2018-06-02T15:42:47.445Z,20.10
2018-06-02T15:42:52.626Z,20.00
2018-06-02T15:42:57.921Z,20.03
2018-06-02T15:43:02.842Z,20.30
2018-06-02T15:43:09.503Z,20.23
2018-06-02T15:43:15.334Z,19.98
2018-06-02T15:43:21.223Z,19.90
2018-06-02T15:43:25.633Z,20.05
2018-06-02T15:43:30.633Z,19.75
2018-06-02T15:43:35.105Z,19.73
2018-06-02T15:43:41.124Z,19.90
2018-06-02T15:43:47.058Z,19.90
2018-06-02T15:43:51.484Z,19.92
2018-06-02T15:43:57.444Z,19.80
2018-06-02T15:44:02.201Z,19.90
2018-06-02T15:44:06.724Z,19.87
2018-06-02T15:44:10.964Z,19.55
2018-06-02T15:44:16.603Z,19.35
2018-06-02T15:44:21.311Z,19.37
2018-06-02T15:44:25.708Z,19.30
2018-06-02T15:44:30.012Z,18.90
2018-06-02T15:44:34.365Z,18.70
2018-06-02T15:44:38.902Z,18.87
2018-06-02T15:44:44.402Z,19.00
2018-06-02T15:44:49.314Z,18.90
2018-06-02T15:44:53.333Z,18.67
2018-06-02T15:44:58.404Z,18.70
2018-06-02T15:45:03.183Z,18.60
2018-06-02T15:45:07.062Z,18.33
2018-06-02T15:45:12.371Z,18.20
2018-06-02T15:45:16.504Z,18.10
2018-06-02T15:45:20.313Z,17.95
2018-06-02T15:45:25.544Z,18.40
2018-06-02T15:45:29.672Z,18.70
2018-06-02T15:45:34.743Z,18.90
2018-06-02T15:45:39.314Z,19.33
2018-06-02T15:45:43.612Z,19.40
2018-06-02T15:45:48.783Z,19.55
2018-06-02T15:45:53.101Z,19.50
2018-06-02T15:45:57.022Z,19.37
2018-06-02T15:46:03.092Z,19.10
2018-06-02T15:46:07.493Z,19.00
2018-06-02T15:46:12.370Z,19.00
2018-06-02T15:46:16.331Z,19.10
2018-06-02T15:46:20.422Z,19.00
2018-06-02T15:46:24.774Z,19.10
2018-06-02T15:46:29.732Z,19.15
2018-06-02T15:46:33.971Z,19.67
2018-06-02T15:46:38.501Z,19.70
2018-06-02T15:46:45.092Z,19.63
2018-06-02T15:46:49.491Z,19.98
2018-06-02T15:46:53.903Z,20.27
2018-06-02T15:46:58.372Z,20.30
2018-06-02T15:47:03.623Z,20.23
2018-06-02T15:47:07.421Z,20.67
2018-06-02T15:47:11.612Z,21.05
2018-06-02T15:47:16.738Z,20.85
2018-06-02T15:47:20.632Z,20.80
2018-06-02T15:47:24.741Z,20.80
2018-06-02T15:47:28.742Z,20.85
2018-06-02T15:47:33.242Z,20.80
2018-06-02T15:47:37.312Z,20.67
2018-06-02T15:47:41.471Z,20.65
2018-06-02T15:47:45.572Z,20.75
2018-06-02T15:47:50.783Z,21.20
2018-06-02T15:47:54.906Z,21.40
2018-06-02T15:47:59.201Z,21.20
2018-06-02T15:48:03.614Z,21.13
2018-06-02T15:48:07.968Z,20.95
2018-06-02T15:48:12.235Z,20.80
2018-06-02T15:48:16.155Z,20.93
2018-06-02T15:48:20.418Z,20.60
2018-06-02T15:48:24.531Z,20.43
2018-06-02T15:48:28.781Z,20.55
2018-06-02T15:48:34.222Z,20.50
2018-06-02T15:48:39.528Z,20.50
2018-06-02T15:48:44.082Z,20.37
2018-06-02T15:48:50.124Z,20.20
2018-06-02T15:48:53.994Z,20.42
2018-06-02T15:48:58.061Z,20.50
2018-06-02T15:49:03.524Z,20.80
2018-06-02T15:49:07.892Z,21.05
2018-06-02T15:49:12.961Z,21.20
2018-06-02T15:49:16.983Z,21.23
2018-06-02T15:49:20.915Z,20.85
2018-06-02T15:49:25.175Z,20.80
2018-06-02T15:49:29.722Z,20.75
2018-06-02T15:49:35.242Z,21.10
2018-06-02T15:49:40.774Z,20.90
2018-06-02T15:49:46.481Z,20.80
2018-06-02T15:49:51.282Z,21.17
2018-06-02T15:49:56.562Z,21.25
2018-06-02T15:50:00.852Z,21.40
2018-06-02T15:50:05.163Z,20.90
2018-06-02T15:50:09.518Z,21.05
2018-06-02T15:50:13.754Z,21.07
2018-06-02T15:50:18.931Z,21.05
2018-06-02T15:50:23.381Z,21.00
2018-06-02T15:50:28.434Z,20.77
2018-06-02T15:50:33.544Z,20.90
